Time;durP1;ratioP1;P1;durP2;ratioP2;P2;SDS_P1;SDS_P2;PMS_P1;PMS_P2;Temp;Humidity;BMP_temperature;BMP_pressure;BME280_temperature;BME280_humidity;BME280_pressure;Samples;Min_cycle;Max_cycle;Signal;HPM_P1;HPM_P2
2022/07/05 00:00:43;;;;;;;1.40;1.27;;;20.50;99.90;;;;;;5047334;28;20247;-70
2022/07/05 00:03:10;;;;;;;1.23;1.23;;;20.50;99.90;;;;;;5047671;28;20208;-70
2022/07/05 00:05:37;;;;;;;1.37;1.27;;;20.60;99.90;;;;;;5047719;28;20242;-70
2022/07/05 00:08:06;;;;;;;2.05;1.45;;;20.50;99.90;;;;;;5047295;28;20240;-70
2022/07/05 00:10:33;;;;;;;1.50;1.40;;;20.40;99.90;;;;;;5047433;28;20219;-70
2022/07/05 00:13:00;;;;;;;2.05;1.40;;;20.40;99.90;;;;;;5047702;28;20208;-70
2022/07/05 00:15:27;;;;;;;1.60;1.27;;;20.40;99.90;;;;;;5047479;28;20200;-70
2022/07/05 00:17:54;;;;;;;1.60;1.50;;;20.40;99.90;;;;;;5047588;28;20240;-70
2022/07/05 00:20:21;;;;;;;1.40;1.30;;;20.40;99.90;;;;;;5047420;28;20208;-70
2022/07/05 00:22:48;;;;;;;4.50;1.70;;;20.40;99.90;;;;;;5047343;28;20242;-71
2022/07/05 00:25:16;;;;;;;1.70;1.60;;;20.40;99.90;;;;;;5047181;28;20204;-69
2022/07/05 00:27:43;;;;;;;1.48;1.42;;;20.30;99.90;;;;;;5047926;28;20215;-69
2022/07/05 00:30:11;;;;;;;2.83;1.50;;;20.30;99.90;;;;;;5046991;28;20247;-70
2022/07/05 00:32:38;;;;;;;2.78;1.58;;;20.30;99.90;;;;;;5033583;28;20209;-70
2022/07/05 00:35:06;;;;;;;1.60;1.50;;;20.30;99.90;;;;;;5027079;28;20205;-71
2022/07/05 00:37:32;;;;;;;1.43;1.33;;;20.30;99.90;;;;;;5033024;28;20497;-70
2022/07/05 00:39:59;;;;;;;1.53;1.43;;;20.30;99.90;;;;;;5027547;28;20209;-70
2022/07/05 00:42:27;;;;;;;3.33;1.53;;;20.20;99.90;;;;;;5032848;28;20204;-70
2022/07/05 00:44:55;;;;;;;1.70;1.53;;;20.20;99.90;;;;;;5047106;28;21102;-70
2022/07/05 00:47:23;;;;;;;1.93;1.63;;;20.20;99.90;;;;;;5047140;28;20212;-70
2022/07/05 00:49:50;;;;;;;2.57;1.60;;;20.10;99.90;;;;;;5047054;28;20259;-69
2022/07/05 00:52:17;;;;;;;2.03;1.60;;;20.10;99.90;;;;;;5046904;28;20203;-68
2022/07/05 00:54:43;;;;;;;1.70;1.60;;;20.00;99.90;;;;;;5046994;28;20211;-69
2022/07/05 00:57:10;;;;;;;1.40;1.20;;;20.00;99.90;;;;;;5046601;28;20698;-69
2022/07/05 00:59:38;;;;;;;3.20;1.40;;;19.90;99.90;;;;;;5042911;28;20208;-69
2022/07/05 01:02:05;;;;;;;3.20;1.50;;;19.80;99.90;;;;;;5045881;28;20208;-69
2022/07/05 01:04:32;;;;;;;2.97;1.67;;;19.80;99.90;;;;;;5050776;28;20208;-69
2022/07/05 01:06:59;;;;;;;1.60;1.50;;;19.80;99.90;;;;;;5050456;28;20219;-69
2022/07/05 01:09:25;;;;;;;1.53;1.43;;;19.90;99.90;;;;;;5050071;28;20228;-69
2022/07/05 01:11:54;;;;;;;1.90;1.00;;;19.80;99.90;;;;;;5050425;28;20204;-69
2022/07/05 01:14:22;;;;;;;1.30;1.30;;;19.80;99.90;;;;;;5050343;28;20581;-69
2022/07/05 01:16:52;;;;;;;2.23;1.50;;;19.80;99.90;;;;;;5050145;28;20232;-69
2022/07/05 01:19:21;;;;;;;2.23;1.50;;;19.80;99.90;;;;;;5050519;28;20218;-69
2022/07/05 01:21:50;;;;;;;1.20;1.20;;;19.80;99.90;;;;;;5050193;28;20212;-69
2022/07/05 01:24:19;;;;;;;2.00;1.23;;;19.80;99.90;;;;;;5049655;28;20670;-71
2022/07/05 01:26:51;;;;;;;1.87;1.40;;;19.80;99.90;;;;;;5034721;28;20201;-71
2022/07/05 01:29:19;;;;;;;3.03;1.50;;;19.70;99.90;;;;;;5034544;28;20201;-71
2022/07/05 01:31:46;;;;;;;3.70;1.17;;;19.70;99.90;;;;;;5049650;28;20293;-71
2022/07/05 01:34:13;;;;;;;1.47;1.40;;;19.70;99.90;;;;;;5044883;28;20239;-71
2022/07/05 01:36:40;;;;;;;1.50;1.40;;;19.60;99.90;;;;;;5029656;28;20237;-71
2022/07/05 01:39:08;;;;;;;5.47;1.70;;;19.60;99.90;;;;;;5038926;28;20674;-71
2022/07/05 01:41:36;;;;;;;1.20;1.20;;;19.50;99.90;;;;;;5050145;28;20220;-71
2022/07/05 01:44:04;;;;;;;2.60;1.27;;;19.50;99.90;;;;;;5049594;28;20204;-71
2022/07/05 01:46:35;;;;;;;1.27;1.20;;;19.50;99.90;;;;;;5049891;28;20211;-71
2022/07/05 01:49:05;;;;;;;1.70;1.60;;;19.60;99.90;;;;;;5049885;28;20207;-71
2022/07/05 01:51:35;;;;;;;2.43;1.50;;;19.50;99.90;;;;;;5049257;28;20204;-71
2022/07/05 01:54:02;;;;;;;1.57;1.47;;;19.50;99.90;;;;;;5049197;28;20204;-71
2022/07/05 01:56:29;;;;;;;1.60;1.00;;;19.50;99.90;;;;;;5049171;28;20208;-71
2022/07/05 01:58:59;;;;;;;1.10;1.10;;;19.50;99.90;;;;;;5049804;28;20204;-71
2022/07/05 02:01:34;;;;;;;3.40;1.47;;;19.50;99.90;;;;;;5049340;28;20203;-71
2022/07/05 02:04:01;;;;;;;1.57;1.47;;;19.40;99.90;;;;;;5043968;28;20215;-71
2022/07/05 02:06:28;;;;;;;1.10;1.10;;;19.50;99.90;;;;;;5028976;28;20667;-71
2022/07/05 02:08:54;;;;;;;1.67;1.37;;;19.50;99.90;;;;;;5029487;28;20254;-70
2022/07/05 02:11:21;;;;;;;2.77;1.30;;;19.50;99.90;;;;;;5029571;28;20283;-70
2022/07/05 02:13:48;;;;;;;4.30;1.60;;;19.40;99.90;;;;;;5037939;28;20219;-70
2022/07/05 02:16:16;;;;;;;1.53;1.43;;;19.40;99.90;;;;;;5049106;28;20376;-70
2022/07/05 02:18:43;;;;;;;3.00;1.13;;;19.40;99.90;;;;;;5046123;28;20225;-68
2022/07/05 02:21:09;;;;;;;3.07;1.40;;;19.30;99.90;;;;;;5043087;28;20212;-68
2022/07/05 02:23:36;;;;;;;1.67;1.47;;;19.30;99.90;;;;;;5041611;28;20219;-69
2022/07/05 02:26:06;;;;;;;1.70;1.40;;;19.30;99.90;;;;;;5036958;28;20201;-70
2022/07/05 02:28:33;;;;;;;2.20;1.50;;;19.20;99.90;;;;;;5036866;28;20206;-70
2022/07/05 02:31:00;;;;;;;2.33;1.77;;;19.20;99.90;;;;;;5037711;28;20241;-70
2022/07/05 02:33:28;;;;;;;1.53;1.43;;;19.20;99.90;;;;;;5026527;28;20923;-70
2022/07/05 02:35:55;;;;;;;2.20;1.40;;;19.20;99.90;;;;;;5040619;28;20207;-70
2022/07/05 02:38:23;;;;;;;2.10;1.90;;;19.10;99.90;;;;;;5046861;28;20235;-70
2022/07/05 02:40:49;;;;;;;2.67;1.80;;;19.10;99.90;;;;;;5047052;28;20263;-70
2022/07/05 02:43:16;;;;;;;2.13;1.50;;;19.10;99.90;;;;;;5046397;28;20230;-70
2022/07/05 02:45:43;;;;;;;1.43;1.37;;;19.00;99.90;;;;;;5046689;28;20204;-70
2022/07/05 02:48:09;;;;;;;2.77;1.80;;;19.00;99.90;;;;;;5046082;28;20215;-70
2022/07/05 02:50:38;;;;;;;2.37;1.53;;;19.00;99.90;;;;;;5046734;28;20295;-70
2022/07/05 02:53:05;;;;;;;1.70;1.60;;;19.00;99.90;;;;;;5040883;28;20205;-70
2022/07/05 02:55:32;;;;;;;2.13;1.50;;;19.00;99.90;;;;;;5026436;28;20208;-70
2022/07/05 02:57:59;;;;;;;1.80;1.70;;;19.00;99.90;;;;;;5026452;28;20236;-70
2022/07/05 03:00:25;;;;;;;1.97;1.63;;;19.00;99.90;;;;;;5044322;28;20224;-71
2022/07/05 03:02:52;;;;;;;1.70;1.60;;;19.00;99.90;;;;;;5046463;28;20302;-70
2022/07/05 03:05:19;;;;;;;2.67;1.80;;;19.00;99.90;;;;;;5045688;28;20212;-70
2022/07/05 03:07:47;;;;;;;3.93;2.00;;;18.90;99.90;;;;;;5041723;28;20231;-70
2022/07/05 03:10:14;;;;;;;2.63;1.80;;;18.90;99.90;;;;;;5034602;28;20681;-70
2022/07/05 03:12:41;;;;;;;3.40;1.63;;;18.80;99.90;;;;;;5046712;28;20204;-70
2022/07/05 03:15:09;;;;;;;2.10;1.60;;;18.80;99.90;;;;;;5046353;28;20212;-70
2022/07/05 03:17:35;;;;;;;3.80;1.70;;;18.80;99.90;;;;;;5046701;28;20232;-70
2022/07/05 03:20:02;;;;;;;2.07;1.60;;;18.80;99.90;;;;;;5046288;28;20691;-69
2022/07/05 03:22:29;;;;;;;4.40;2.20;;;18.80;99.90;;;;;;5043448;28;20213;-69
2022/07/05 03:24:57;;;;;;;1.70;1.60;;;18.80;99.90;;;;;;5026623;28;20220;-70
2022/07/05 03:27:24;;;;;;;1.60;1.50;;;18.80;99.90;;;;;;5038239;28;20741;-69
2022/07/05 03:29:51;;;;;;;1.77;1.67;;;18.80;99.90;;;;;;5047487;28;20204;-69
2022/07/05 03:32:18;;;;;;;1.77;1.67;;;18.70;99.90;;;;;;5047698;28;20204;-70
2022/07/05 03:34:44;;;;;;;2.80;1.57;;;18.70;99.90;;;;;;5047853;28;20224;-70
2022/07/05 03:37:11;;;;;;;5.30;1.80;;;18.70;99.90;;;;;;5047377;28;20224;-70
2022/07/05 03:39:38;;;;;;;1.80;1.70;;;18.70;99.90;;;;;;5047958;28;20309;-70
2022/07/05 03:42:07;;;;;;;1.93;1.83;;;18.70;99.90;;;;;;5047599;28;20305;-69
2022/07/05 03:44:34;;;;;;;2.53;2.13;;;18.70;99.90;;;;;;5047874;28;20212;-70
2022/07/05 03:47:01;;;;;;;1.70;1.60;;;18.80;99.90;;;;;;5047774;28;20211;-70
2022/07/05 03:49:28;;;;;;;1.87;1.77;;;18.70;99.90;;;;;;5040848;28;20295;-70
2022/07/05 03:51:55;;;;;;;1.80;1.70;;;18.70;99.90;;;;;;5027365;28;20208;-70
2022/07/05 03:54:21;;;;;;;1.90;1.80;;;18.70;99.90;;;;;;5027811;28;20296;-70
2022/07/05 03:56:48;;;;;;;2.10;1.73;;;18.70;99.90;;;;;;5027721;28;20204;-69
2022/07/05 03:59:16;;;;;;;3.63;1.70;;;18.70;99.90;;;;;;5027738;28;20244;-69
2022/07/05 04:01:43;;;;;;;15.33;2.10;;;18.80;99.90;;;;;;5027803;28;20227;-69
2022/07/05 04:04:10;;;;;;;4.63;2.10;;;18.70;99.90;;;;;;5027745;28;20205;-70
2022/07/05 04:06:39;;;;;;;1.43;1.40;;;18.70;99.90;;;;;;5027441;28;20212;-69
2022/07/05 04:09:08;;;;;;;2.03;1.90;;;18.80;99.90;;;;;;5027182;28;20221;-70
2022/07/05 04:11:35;;;;;;;5.43;2.07;;;18.80;99.90;;;;;;5027578;28;20209;-69
2022/07/05 04:14:02;;;;;;;2.27;1.87;;;18.80;99.90;;;;;;5038162;28;20208;-69
2022/07/05 04:16:30;;;;;;;17.73;3.63;;;18.70;99.90;;;;;;5047107;28;20204;-70
2022/07/05 04:18:56;;;;;;;8.27;2.23;;;18.70;99.90;;;;;;5047080;28;20243;-70
2022/07/05 04:21:23;;;;;;;1.80;1.70;;;18.70;99.90;;;;;;5046940;28;20204;-69
2022/07/05 04:23:50;;;;;;;3.20;1.90;;;18.70;99.90;;;;;;5029127;28;20706;-70
2022/07/05 04:26:20;;;;;;;3.53;1.90;;;18.70;99.90;;;;;;5027263;28;20296;-69
2022/07/05 04:28:46;;;;;;;1.90;1.70;;;18.70;99.90;;;;;;5027312;28;20231;-69
2022/07/05 04:31:16;;;;;;;1.93;1.83;;;18.80;99.90;;;;;;5046811;28;20243;-69
2022/07/05 04:33:44;;;;;;;2.00;1.80;;;18.80;99.90;;;;;;5047105;28;20213;-70
2022/07/05 04:36:15;;;;;;;2.23;2.03;;;18.80;99.90;;;;;;5047767;28;20212;-69
2022/07/05 04:38:42;;;;;;;4.33;2.50;;;18.80;99.90;;;;;;5050945;28;20251;-69
2022/07/05 04:41:09;;;;;;;2.60;1.93;;;18.80;99.90;;;;;;5050824;28;20303;-69
2022/07/05 04:43:35;;;;;;;4.37;2.27;;;18.80;99.90;;;;;;5050875;28;20210;-70
2022/07/05 04:46:05;;;;;;;2.87;2.20;;;18.80;99.90;;;;;;5050403;28;20210;-70
2022/07/05 04:48:31;;;;;;;4.80;2.27;;;18.80;99.90;;;;;;5050804;28;20210;-70
2022/07/05 04:50:59;;;;;;;2.30;2.10;;;18.80;99.90;;;;;;5050710;28;20232;-70
2022/07/05 04:53:26;;;;;;;3.57;2.40;;;18.90;99.90;;;;;;5050448;28;20208;-70
2022/07/05 04:55:53;;;;;;;3.00;1.90;;;18.90;99.90;;;;;;5051061;28;20203;-70
2022/07/05 04:58:20;;;;;;;3.33;2.10;;;18.90;99.90;;;;;;5050277;28;20800;-70
2022/07/05 05:00:46;;;;;;;1.80;1.70;;;18.90;99.90;;;;;;5050345;28;20204;-70
2022/07/05 05:03:13;;;;;;;3.20;1.97;;;19.00;99.90;;;;;;5050546;28;20200;-69
2022/07/05 05:05:40;;;;;;;2.67;2.00;;;19.00;99.90;;;;;;5050604;28;20204;-70
2022/07/05 05:08:08;;;;;;;1.90;1.80;;;19.00;99.90;;;;;;5035090;28;20224;-70
2022/07/05 05:10:35;;;;;;;6.80;2.17;;;19.00;99.90;;;;;;5030639;28;20205;-70
2022/07/05 05:13:01;;;;;;;1.87;1.77;;;19.00;99.90;;;;;;5030622;28;20205;-70
2022/07/05 05:15:28;;;;;;;2.40;2.20;;;19.10;99.90;;;;;;5030385;28;20209;-70
2022/07/05 05:17:55;;;;;;;3.17;2.10;;;19.10;99.90;;;;;;5030746;28;20229;-70
2022/07/05 05:20:22;;;;;;;1.97;1.70;;;19.10;99.90;;;;;;5035598;28;20209;-70
2022/07/05 05:22:48;;;;;;;3.60;1.63;;;19.10;99.90;;;;;;5035296;28;20201;-70
2022/07/05 05:25:17;;;;;;;2.00;1.80;;;19.10;99.90;;;;;;5049959;28;20204;-70
2022/07/05 05:27:44;;;;;;;3.23;1.73;;;19.20;99.90;;;;;;5049818;28;20688;-70
2022/07/05 05:30:12;;;;;;;2.93;1.60;;;19.20;99.90;;;;;;5049738;28;20244;-70
2022/07/05 05:32:39;;;;;;;3.87;1.67;;;19.30;99.90;;;;;;5032473;28;20204;-70
2022/07/05 05:35:08;;;;;;;1.73;1.20;;;19.30;99.90;;;;;;5040742;28;20212;-70
2022/07/05 05:37:46;;;;;;;3.53;1.77;;;19.40;99.90;;;;;;5049470;28;20208;-70
2022/07/05 05:40:13;;;;;;;3.20;2.63;;;19.50;99.90;;;;;;5049851;28;20598;-70
2022/07/05 05:42:41;;;;;;;4.40;1.33;;;19.50;99.90;;;;;;5049728;28;20208;-70
2022/07/05 05:45:09;;;;;;;1.40;1.30;;;19.50;99.90;;;;;;5049802;28;20223;-70
2022/07/05 05:47:44;;;;;;;3.80;1.50;;;19.60;99.90;;;;;;5049154;28;20212;-70
2022/07/05 05:50:11;;;;;;;7.13;2.00;;;19.60;99.90;;;;;;5049511;28;20278;-70
2022/07/05 05:52:37;;;;;;;2.23;1.20;;;19.70;99.90;;;;;;5049636;28;20208;-69
2022/07/05 05:55:06;;;;;;;3.03;1.50;;;19.70;99.90;;;;;;5049619;28;20211;-70
2022/07/05 05:57:32;;;;;;;3.07;1.20;;;19.70;99.90;;;;;;5049690;28;20412;-70
2022/07/05 06:00:00;;;;;;;1.90;1.53;;;19.70;99.90;;;;;;5049721;28;20200;-70
2022/07/05 06:02:27;;;;;;;2.10;1.10;;;19.70;99.90;;;;;;5049503;28;20208;-70
2022/07/05 06:04:54;;;;;;;1.73;1.20;;;19.80;99.90;;;;;;5049334;28;20721;-70
2022/07/05 06:07:21;;;;;;;2.67;1.63;;;19.70;99.90;;;;;;5049108;28;20647;-70
2022/07/05 06:09:48;;;;;;;2.83;1.30;;;19.70;99.90;;;;;;5049580;28;20576;-70
2022/07/05 06:12:14;;;;;;;1.83;1.10;;;19.70;99.90;;;;;;5049199;28;20662;-70
2022/07/05 06:14:41;;;;;;;2.87;1.30;;;19.70;99.90;;;;;;5044633;28;20207;-70
2022/07/05 06:17:09;;;;;;;2.00;1.13;;;19.80;99.90;;;;;;5028895;28;20213;-70
2022/07/05 06:19:36;;;;;;;2.63;1.10;;;19.80;99.90;;;;;;5029261;28;20232;-70
2022/07/05 06:22:03;;;;;;;6.83;1.90;;;19.90;99.70;;;;;;5029142;28;20208;-70
2022/07/05 06:24:30;;;;;;;5.77;1.83;;;20.00;99.60;;;;;;5048414;28;20204;-70
2022/07/05 06:26:57;;;;;;;2.10;1.10;;;20.10;99.40;;;;;;5049158;28;20204;-70
2022/07/05 06:29:23;;;;;;;4.00;1.30;;;20.10;99.40;;;;;;5048902;28;20207;-70
2022/07/05 06:31:50;;;;;;;2.93;1.43;;;20.20;99.20;;;;;;5048339;28;20244;-70
2022/07/05 06:34:21;;;;;;;1.30;1.20;;;20.20;99.10;;;;;;5048807;28;20219;-70
2022/07/05 06:36:48;;;;;;;2.37;1.20;;;20.10;99.00;;;;;;5048685;28;20211;-70
2022/07/05 06:39:14;;;;;;;2.87;1.47;;;20.10;99.20;;;;;;5048571;28;20263;-70
2022/07/05 06:41:41;;;;;;;2.13;1.23;;;20.10;99.70;;;;;;5048498;28;20204;-70
2022/07/05 06:44:08;;;;;;;1.30;1.20;;;20.00;99.90;;;;;;5048318;28;20219;-70
2022/07/05 06:46:35;;;;;;;3.80;1.30;;;20.00;99.90;;;;;;5048446;28;20207;-70
2022/07/05 06:49:01;;;;;;;11.63;2.43;;;20.10;99.90;;;;;;5048520;28;20215;-70
2022/07/05 06:51:29;;;;;;;3.23;1.40;;;20.20;99.90;;;;;;5048302;28;20216;-70
2022/07/05 06:53:56;;;;;;;3.90;1.40;;;20.30;99.90;;;;;;5048425;28;20218;-70
2022/07/05 06:56:23;;;;;;;2.17;1.80;;;20.30;99.90;;;;;;5048245;28;20212;-70
2022/07/05 06:58:50;;;;;;;4.00;1.20;;;20.40;99.90;;;;;;5047977;28;20235;-70
2022/07/05 07:01:17;;;;;;;1.37;1.30;;;20.40;99.90;;;;;;5047289;28;20200;-70
2022/07/05 07:03:43;;;;;;;2.00;1.60;;;20.30;99.90;;;;;;5048139;28;20212;-70
2022/07/05 07:06:10;;;;;;;1.53;1.20;;;20.40;99.90;;;;;;5047921;28;20210;-70
2022/07/05 07:11:23;;;;;;;1.90;1.13;;;20.20;99.90;;;;;;5045433;28;20219;-70
2022/07/05 07:13:49;;;;;;;3.17;1.47;;;20.20;99.90;;;;;;5036861;28;20635;-70
2022/07/05 07:16:16;;;;;;;1.83;1.40;;;20.20;99.90;;;;;;5047508;28;20204;-70
2022/07/05 07:18:43;;;;;;;2.60;1.47;;;20.20;99.90;;;;;;5047863;28;20235;-70
2022/07/05 07:21:09;;;;;;;1.43;1.10;;;20.30;99.90;;;;;;5047386;28;20211;-71
2022/07/05 07:23:38;;;;;;;5.63;1.57;;;20.30;99.90;;;;;;5043109;28;20220;-70
2022/07/05 07:26:07;;;;;;;0.97;0.90;;;20.40;99.90;;;;;;5028118;28;20209;-70
2022/07/05 07:28:34;;;;;;;3.03;1.40;;;20.50;99.20;;;;;;5046419;28;20219;-70
2022/07/05 07:31:01;;;;;;;2.80;1.33;;;20.50;99.00;;;;;;5065799;28;20724;-70
2022/07/05 07:33:28;;;;;;;1.60;1.30;;;20.60;98.70;;;;;;5067568;28;20235;-70
2022/07/05 07:35:55;;;;;;;8.27;1.93;;;20.60;98.80;;;;;;5048968;28;20266;-70
2022/07/05 07:38:21;;;;;;;3.07;1.57;;;20.70;98.70;;;;;;5047594;28;20240;-70
2022/07/05 07:40:50;;;;;;;2.00;1.10;;;20.80;98.70;;;;;;5047801;28;20215;-70
2022/07/05 07:43:16;;;;;;;2.63;1.37;;;20.80;98.70;;;;;;5047492;28;20204;-70
2022/07/05 07:45:44;;;;;;;1.70;1.50;;;20.70;98.40;;;;;;5047089;28;20216;-70
2022/07/05 07:48:10;;;;;;;3.13;1.47;;;20.60;98.40;;;;;;5047698;28;20208;-70
2022/07/05 07:50:37;;;;;;;2.10;1.50;;;20.70;98.80;;;;;;5047726;28;20200;-70
2022/07/05 07:53:04;;;;;;;2.43;1.40;;;20.70;98.70;;;;;;5047365;28;20200;-70
2022/07/05 07:55:31;;;;;;;14.33;2.40;;;20.70;98.10;;;;;;5047558;28;20227;-70
2022/07/05 07:57:59;;;;;;;1.70;1.30;;;20.80;98.50;;;;;;5047333;28;20210;-70
2022/07/05 08:00:26;;;;;;;6.23;1.80;;;20.80;98.60;;;;;;5047395;28;20401;-70
2022/07/05 08:02:52;;;;;;;2.53;1.40;;;20.90;98.70;;;;;;5047410;28;20208;-70
2022/07/05 08:05:19;;;;;;;1.40;1.30;;;21.10;98.80;;;;;;5047127;28;20208;-70
2022/07/05 08:07:46;;;;;;;1.40;1.30;;;21.10;98.10;;;;;;5040769;28;20593;-70
2022/07/05 08:10:13;;;;;;;2.33;1.40;;;21.10;97.70;;;;;;5047655;28;20299;-70
2022/07/05 08:12:40;;;;;;;2.70;1.77;;;21.10;97.70;;;;;;5051131;28;20216;-70
2022/07/05 08:15:09;;;;;;;3.70;1.47;;;21.10;98.00;;;;;;5031733;28;20209;-70
2022/07/05 08:17:36;;;;;;;2.25;1.13;;;21.30;98.40;;;;;;5031586;28;20205;-70
2022/07/05 08:22:47;;;;;;;1.63;1.40;;;21.30;97.00;;;;;;5050747;28;20219;-70
2022/07/05 08:25:16;;;;;;;2.83;1.35;;;21.40;97.20;;;;;;5051464;28;20208;-70
2022/07/05 08:27:43;;;;;;;1.27;1.17;;;21.30;96.90;;;;;;5051337;28;20244;-70
2022/07/05 08:30:12;;;;;;;2.73;1.67;;;21.30;97.10;;;;;;5060361;28;20647;-70
2022/07/05 08:32:39;;;;;;;2.17;1.20;;;21.30;97.30;;;;;;5051261;28;20360;-70
2022/07/05 08:35:06;;;;;;;2.22;1.10;;;21.40;97.60;;;;;;5051293;28;20214;-70
2022/07/05 08:37:33;;;;;;;8.93;1.53;;;21.40;97.10;;;;;;5050747;28;20419;-70
2022/07/05 08:40:00;;;;;;;4.70;1.43;;;21.40;96.80;;;;;;5050548;28;20232;-70
2022/07/05 08:42:27;;;;;;;2.70;1.48;;;21.50;96.70;;;;;;5050722;28;20211;-70
2022/07/05 08:44:57;;;;;;;1.53;1.40;;;21.50;97.20;;;;;;5050874;28;20212;-70
2022/07/05 08:47:28;;;;;;;2.00;1.00;;;21.50;97.10;;;;;;5050424;28;20667;-70
2022/07/05 08:49:56;;;;;;;2.77;1.53;;;21.60;97.20;;;;;;5051046;28;20740;-70
2022/07/05 08:52:24;;;;;;;1.30;1.20;;;21.70;97.20;;;;;;5049895;28;20675;-70
2022/07/05 08:54:53;;;;;;;2.80;1.60;;;21.80;97.20;;;;;;5050322;28;20689;-70
2022/07/05 08:57:20;;;;;;;1.77;1.48;;;21.90;96.80;;;;;;5050233;28;20215;-70
2022/07/05 08:59:46;;;;;;;2.85;1.48;;;21.90;97.00;;;;;;5050360;28;20828;-69
2022/07/05 09:02:16;;;;;;;1.95;1.15;;;22.00;97.30;;;;;;5050026;28;20655;-70
2022/07/05 09:04:46;;;;;;;1.33;1.20;;;22.10;97.00;;;;;;5050003;28;20218;-70
2022/07/05 09:07:16;;;;;;;14.48;2.20;;;22.20;97.10;;;;;;5049734;28;20228;-70
2022/07/05 09:09:44;;;;;;;3.20;1.33;;;22.30;97.30;;;;;;5050215;28;20240;-70
2022/07/05 09:12:13;;;;;;;3.13;1.40;;;22.30;96.50;;;;;;5050254;28;20214;-70
2022/07/05 09:14:39;;;;;;;1.40;1.30;;;22.20;96.30;;;;;;5049991;28;20266;-70
2022/07/05 09:17:06;;;;;;;2.53;1.42;;;22.20;96.50;;;;;;5036917;28;20212;-70
2022/07/05 09:19:34;;;;;;;3.25;1.40;;;22.20;96.60;;;;;;5036128;28;20597;-70
2022/07/05 09:22:08;;;;;;;1.73;1.13;;;22.30;96.40;;;;;;5049554;28;20219;-70
2022/07/05 09:24:44;;;;;;;1.98;1.42;;;22.30;96.20;;;;;;5029486;28;20869;-70
2022/07/05 09:27:11;;;;;;;3.38;1.15;;;22.40;96.40;;;;;;5037924;28;20212;-70
2022/07/05 09:29:38;;;;;;;2.40;1.30;;;22.40;95.90;;;;;;5049642;28;20203;-70
2022/07/05 09:32:05;;;;;;;1.83;1.13;;;22.40;96.40;;;;;;5049504;28;20243;-70
2022/07/05 09:34:34;;;;;;;3.47;1.63;;;22.30;96.20;;;;;;5049615;28;20674;-70
2022/07/05 09:37:02;;;;;;;3.20;1.30;;;22.40;96.40;;;;;;5049621;28;20301;-70
2022/07/05 09:39:39;;;;;;;2.30;1.30;;;22.50;96.50;;;;;;5049522;28;20238;-70
2022/07/05 09:42:20;;;;;;;1.48;1.38;;;22.40;96.10;;;;;;5049723;28;20192;-70
2022/07/05 09:44:48;;;;;;;4.82;1.60;;;22.60;96.90;;;;;;5049933;28;20294;-70
2022/07/05 09:47:16;;;;;;;7.93;1.60;;;22.70;96.60;;;;;;5049494;28;20204;-70
2022/07/05 09:49:46;;;;;;;2.55;1.45;;;22.70;95.70;;;;;;5049516;28;20208;-70
2022/07/05 09:52:28;;;;;;;4.10;1.33;;;22.70;95.40;;;;;;5049412;28;20207;-70
2022/07/05 09:55:07;;;;;;;1.63;1.50;;;22.70;95.20;;;;;;5049677;28;20200;-70
2022/07/05 09:57:35;;;;;;;3.40;1.40;;;22.50;95.30;;;;;;5049022;28;20216;-70
2022/07/05 10:00:05;;;;;;;2.72;1.67;;;22.60;96.20;;;;;;5048927;28;20232;-70
2022/07/05 10:02:39;;;;;;;5.93;1.80;;;22.80;95.60;;;;;;5048889;28;20677;-70
2022/07/05 10:05:10;;;;;;;4.25;1.20;;;22.90;95.90;;;;;;5049118;28;20208;-70
2022/07/05 10:07:40;;;;;;;3.63;1.58;;;23.00;95.50;;;;;;5048918;28;20232;-70
2022/07/05 10:10:09;;;;;;;20.95;3.20;;;23.00;95.80;;;;;;5049088;28;20211;-70
2022/07/05 10:12:38;;;;;;;8.18;1.90;;;23.10;95.90;;;;;;5042140;28;20721;-70
2022/07/05 10:15:08;;;;;;;2.97;1.58;;;23.20;94.60;;;;;;5048505;28;20208;-70
2022/07/05 10:17:37;;;;;;;3.10;1.50;;;23.30;94.70;;;;;;5028914;28;20666;-70
2022/07/05 10:20:09;;;;;;;4.05;1.42;;;23.40;94.50;;;;;;5029042;28;20240;-70
2022/07/05 10:22:36;;;;;;;3.58;1.70;;;23.50;94.00;;;;;;5031116;28;20210;-70
2022/07/05 10:25:04;;;;;;;3.88;1.70;;;23.40;93.70;;;;;;5028814;28;20223;-70
2022/07/05 10:27:33;;;;;;;1.80;1.70;;;23.40;94.00;;;;;;5029111;28;20292;-70
2022/07/05 10:30:00;;;;;;;3.05;1.70;;;23.40;93.40;;;;;;5038900;28;20231;-70
2022/07/05 10:32:29;;;;;;;2.97;1.58;;;23.30;93.30;;;;;;5048913;28;20665;-70
2022/07/05 10:34:59;;;;;;;2.33;1.70;;;23.40;93.40;;;;;;5048452;28;20577;-70
2022/07/05 10:37:27;;;;;;;2.03;1.45;;;23.40;93.40;;;;;;5048639;28;20212;-70
2022/07/05 10:39:55;;;;;;;9.27;2.17;;;23.30;93.60;;;;;;5048736;28;20235;-70
2022/07/05 10:42:24;;;;;;;2.22;1.20;;;23.30;94.10;;;;;;5048256;28;20745;-70
2022/07/05 10:44:52;;;;;;;3.22;1.30;;;23.20;93.90;;;;;;5049034;28;20215;-70
2022/07/05 10:47:19;;;;;;;1.40;1.30;;;23.30;94.30;;;;;;5048526;28;20211;-70
2022/07/05 10:50:00;;;;;;;2.95;1.20;;;23.50;94.00;;;;;;5048531;28;20720;-70
2022/07/05 10:52:28;;;;;;;3.35;1.48;;;23.70;93.80;;;;;;5048155;28;20200;-70
2022/07/05 10:55:21;;;;;;;4.13;1.40;;;23.70;93.00;;;;;;5048534;28;20231;-70
2022/07/05 10:58:21;;;;;;;4.53;1.55;;;23.70;93.60;;;;;;5028622;28;20209;-70
2022/07/05 11:01:08;;;;;;;3.42;1.48;;;23.70;93.80;;;;;;5028004;28;20703;-70
2022/07/05 11:03:36;;;;;;;3.03;1.77;;;23.70;93.70;;;;;;5027918;28;20205;-70
2022/07/05 11:06:09;;;;;;;4.75;1.90;;;23.60;93.40;;;;;;5028086;28;20674;-70
2022/07/05 11:09:14;;;;;;;3.10;1.73;;;23.60;93.40;;;;;;5032738;28;20216;-70
2022/07/05 11:11:43;;;;;;;2.60;1.40;;;23.70;93.60;;;;;;5047659;28;20200;-70
2022/07/05 11:14:39;;;;;;;5.25;1.65;;;23.90;93.20;;;;;;5047830;28;20655;-71
2022/07/05 11:17:25;;;;;;;3.20;1.40;;;24.00;92.60;;;;;;5047780;28;20693;-70
2022/07/05 11:20:11;;;;;;;1.88;1.40;;;24.10;92.60;;;;;;5047884;28;20311;-70
2022/07/05 11:22:41;;;;;;;5.13;1.52;;;24.30;92.80;;;;;;5047363;28;20287;-70
2022/07/05 11:25:11;;;;;;;3.83;1.70;;;24.50;92.20;;;;;;5047832;28;20257;-70
2022/07/05 11:28:02;;;;;;;1.40;1.30;;;24.60;91.70;;;;;;5047496;28;20827;-70
2022/07/05 11:30:28;;;;;;;3.80;1.25;;;24.60;91.30;;;;;;5047039;28;20839;-70
2022/07/05 11:32:59;;;;;;;1.30;1.20;;;24.70;91.70;;;;;;5047374;28;20570;-70
2022/07/05 11:35:36;;;;;;;2.58;1.50;;;24.60;91.70;;;;;;5047713;28;20643;-70
2022/07/05 11:38:07;;;;;;;1.90;1.20;;;24.70;91.50;;;;;;5047263;28;20207;-70
2022/07/05 11:40:36;;;;;;;1.52;1.27;;;24.80;91.10;;;;;;5047852;28;20293;-70
2022/07/05 11:43:03;;;;;;;2.67;1.40;;;24.90;90.90;;;;;;5047785;28;20230;-70
2022/07/05 11:45:31;;;;;;;1.60;1.40;;;25.10;91.40;;;;;;5046651;28;20216;-70
2022/07/05 11:48:00;;;;;;;4.68;1.35;;;25.10;91.50;;;;;;5047412;28;20291;-70
2022/07/05 11:50:31;;;;;;;2.55;1.30;;;25.00;90.60;;;;;;5047568;28;20207;-70
2022/07/05 11:52:59;;;;;;;2.63;1.13;;;25.00;90.90;;;;;;5046953;28;20212;-70
2022/07/05 11:55:28;;;;;;;2.70;1.63;;;24.70;90.80;;;;;;5047262;28;20295;-70
2022/07/05 11:57:57;;;;;;;3.53;1.30;;;24.80;90.10;;;;;;5047037;28;20637;-70
2022/07/05 12:00:31;;;;;;;2.83;1.30;;;24.80;90.00;;;;;;5047078;28;20242;-70
2022/07/05 12:03:00;;;;;;;1.85;1.70;;;24.70;90.00;;;;;;5047333;28;20206;-70
2022/07/05 12:05:33;;;;;;;1.27;1.17;;;24.70;90.60;;;;;;5047369;28;20208;-71
2022/07/05 12:08:00;;;;;;;3.28;1.35;;;24.80;89.90;;;;;;5046827;28;20228;-70
2022/07/05 12:13:12;;;;;;;2.50;1.55;;;25.40;90.00;;;;;;5046998;28;20219;-71
2022/07/05 12:15:40;;;;;;;2.17;1.33;;;25.80;89.70;;;;;;5041429;28;20223;-70
2022/07/05 12:18:11;;;;;;;2.88;1.27;;;25.80;87.70;;;;;;5027186;28;20603;-70
2022/07/05 12:20:39;;;;;;;7.22;1.90;;;25.90;88.00;;;;;;5027315;28;20251;-70
2022/07/05 12:23:07;;;;;;;27.63;4.03;;;26.10;87.50;;;;;;5026628;28;20247;-71
2022/07/05 12:25:35;;;;;;;1.60;1.33;;;26.10;87.80;;;;;;5027736;28;20200;-70
2022/07/05 12:28:05;;;;;;;2.55;1.50;;;26.10;85.80;;;;;;5026972;28;20216;-71
2022/07/05 12:30:33;;;;;;;1.42;1.33;;;26.40;86.10;;;;;;5041180;28;20841;-71
2022/07/05 12:33:01;;;;;;;1.30;1.20;;;26.50;85.90;;;;;;5046794;28;20223;-71
2022/07/05 12:35:31;;;;;;;1.85;1.30;;;26.90;85.90;;;;;;5046487;28;20214;-71
2022/07/05 12:38:02;;;;;;;3.47;1.52;;;27.10;85.90;;;;;;5046580;28;20208;-70
2022/07/05 12:40:29;;;;;;;4.00;1.30;;;27.30;85.30;;;;;;5046620;28;20723;-71
2022/07/05 12:43:08;;;;;;;1.48;1.38;;;27.10;83.30;;;;;;5047018;28;20208;-71
2022/07/05 12:45:35;;;;;;;2.90;1.27;;;27.00;82.60;;;;;;5047009;28;20662;-71
2022/07/05 12:48:06;;;;;;;4.07;1.60;;;27.20;84.30;;;;;;5045863;28;20216;-71
2022/07/05 12:50:48;;;;;;;2.40;1.13;;;27.50;85.10;;;;;;5027180;28;20212;-70
2022/07/05 12:58:48;;;;;;;1.30;1.20;;;27.70;81.20;;;;;;5030308;28;20196;-71
2022/07/05 13:01:26;;;;;;;3.70;1.33;;;27.60;79.80;;;;;;5036368;28;20224;-71
2022/07/05 13:04:05;;;;;;;2.15;1.45;;;27.50;80.00;;;;;;5050565;28;20246;-70
2022/07/05 13:06:45;;;;;;;2.53;1.30;;;27.00;80.30;;;;;;5050718;28;20541;-70